createdAt,value
2022-09-28T00:02:09.970Z,7.05
2022-09-28T00:09:24.191Z,6.95
2022-09-28T00:15:30.856Z,5.45
2022-09-28T00:16:50.872Z,8.50
2022-09-28T00:19:56.799Z,5.72
2022-09-28T00:27:05.390Z,6.05
2022-09-28T00:34:09.019Z,7.28
2022-09-28T00:37:53.243Z,7.60
2022-09-28T00:48:13.731Z,7.70
2022-09-28T00:51:15.043Z,6.97
2022-09-28T00:54:25.220Z,7.72
2022-09-28T00:57:57.924Z,9.45
2022-09-28T01:02:02.657Z,9.98
2022-09-28T01:05:50.304Z,6.93
2022-09-28T01:09:04.606Z,11.05
2022-09-28T01:12:47.638Z,10.40
2022-09-28T01:15:54.481Z,9.53
2022-09-28T01:19:35.147Z,11.13
2022-09-28T01:22:53.728Z,9.30
2022-09-28T01:25:55.482Z,12.67
2022-09-28T01:29:05.959Z,10.33
2022-09-28T01:32:14.721Z,11.38
2022-09-28T01:35:30.787Z,10.75
2022-09-28T01:40:06.522Z,11.10
2022-09-28T01:46:02.102Z,11.38
2022-09-28T01:49:24.370Z,14.73
2022-09-28T01:52:48.866Z,11.45
2022-09-28T01:56:16.819Z,12.30
2022-09-28T02:00:09.322Z,12.88
2022-09-28T02:03:32.251Z,14.40
2022-09-28T02:06:42.135Z,15.48
2022-09-28T02:09:59.138Z,15.30
2022-09-28T02:13:06.721Z,13.95
2022-09-28T02:16:20.819Z,11.38
2022-09-28T02:19:40.781Z,13.10
2022-09-28T02:22:58.339Z,14.52
2022-09-28T02:29:18.163Z,15.77
2022-09-28T02:32:41.879Z,17.45
2022-09-28T02:36:21.486Z,23.70
2022-09-28T02:42:49.540Z,15.82
2022-09-28T02:46:29.475Z,13.85
2022-09-28T02:49:58.476Z,18.33
2022-09-28T02:57:40.781Z,17.05
2022-09-28T03:01:19.372Z,16.25
2022-09-28T03:04:40.084Z,20.40
2022-09-28T03:07:55.169Z,17.88
2022-09-28T03:11:28.477Z,17.63
2022-09-28T03:15:08.107Z,17.45
2022-09-28T03:25:18.013Z,20.63
2022-09-28T03:30:15.428Z,18.08
2022-09-28T03:36:08.924Z,22.37
2022-09-28T03:39:39.381Z,28.90
2022-09-28T03:42:53.637Z,24.00
2022-09-28T03:46:17.042Z,25.60
2022-09-28T03:49:57.416Z,27.10
2022-09-28T03:53:00.897Z,29.83
2022-09-28T03:56:34.002Z,30.00
2022-09-28T03:59:49.993Z,34.63
2022-09-28T04:03:12.388Z,29.20
2022-09-28T04:07:05.468Z,30.40
2022-09-28T04:10:17.392Z,27.90
2022-09-28T04:13:31.922Z,27.13
2022-09-28T04:20:23.708Z,27.77
2022-09-28T04:23:44.510Z,37.83
2022-09-28T04:26:57.363Z,26.93
2022-09-28T04:30:29.225Z,32.60
2022-09-28T04:33:55.877Z,28.33
2022-09-28T04:44:23.191Z,28.83
2022-09-28T04:47:34.641Z,27.53
2022-09-28T04:50:55.127Z,36.10
2022-09-28T04:54:22.260Z,42.87
2022-09-28T04:57:43.388Z,47.93
2022-09-28T05:01:22.942Z,60.03
2022-09-28T05:15:17.850Z,105.80
2022-09-28T05:18:50.779Z,121.90
2022-09-28T05:22:48.465Z,91.43
2022-09-28T05:26:14.412Z,146.67
2022-09-28T05:29:36.868Z,101.43
2022-09-28T05:32:49.648Z,76.23
2022-09-28T05:39:18.172Z,66.33
2022-09-28T05:46:40.614Z,72.13
2022-09-28T05:49:58.745Z,71.17
2022-09-28T05:56:43.851Z,70.13
2022-09-28T06:06:34.072Z,63.90
2022-09-28T06:13:20.023Z,71.10
2022-09-28T06:17:00.694Z,71.03
2022-09-28T06:23:40.595Z,62.53
2022-09-28T06:26:51.722Z,64.73
2022-09-28T06:31:00.102Z,54.20
2022-09-28T06:34:37.550Z,56.33
2022-09-28T06:38:19.933Z,47.23
2022-09-28T06:41:59.705Z,46.30
2022-09-28T06:45:06.588Z,47.15
2022-09-28T06:48:25.645Z,41.72
2022-09-28T06:51:53.467Z,36.37
2022-09-28T06:55:19.921Z,38.00
2022-09-28T07:05:43.066Z,34.67
2022-09-28T07:12:08.972Z,35.15
2022-09-28T07:19:43.779Z,33.75
2022-09-28T07:23:21.638Z,31.83
2022-09-28T07:26:31.575Z,28.25
2022-09-28T07:30:03.422Z,25.15
2022-09-28T07:33:21.607Z,25.05
2022-09-28T07:36:34.258Z,23.88
2022-09-28T07:40:21.130Z,27.85
2022-09-28T07:44:01.235Z,28.17
2022-09-28T07:47:19.714Z,27.30
2022-09-28T07:51:56.811Z,27.85
2022-09-28T07:54:59.263Z,19.38
2022-09-28T08:01:45.043Z,17.27
2022-09-28T08:05:16.385Z,15.35
2022-09-28T08:08:11.388Z,11.43
2022-09-28T08:11:36.324Z,7.75
2022-09-28T08:14:55.442Z,7.38
2022-09-28T08:18:27.858Z,7.88
2022-09-28T08:21:38.960Z,13.77
2022-09-28T08:24:58.722Z,10.13
2022-09-28T08:28:41.774Z,7.90
2022-09-28T08:32:08.299Z,5.80
2022-09-28T08:38:22.958Z,5.80
2022-09-28T08:41:48.797Z,6.35
2022-09-28T08:49:48.733Z,2.20
2022-09-28T08:53:43.944Z,3.42
2022-09-28T08:57:04.031Z,2.17
2022-09-28T09:11:34.363Z,4.30
2022-09-28T09:15:38.290Z,3.67
2022-09-28T09:26:17.842Z,3.22
2022-09-28T09:30:09.470Z,1.75
2022-09-28T09:49:13.663Z,3.08
2022-09-28T09:57:14.699Z,2.95
2022-09-28T10:11:39.958Z,1.65
2022-09-28T10:15:07.212Z,1.38
2022-09-28T10:18:29.397Z,1.52
2022-09-28T10:21:54.097Z,1.75
2022-09-28T10:25:10.807Z,3.83
2022-09-28T10:36:11.722Z,1.40
2022-09-28T10:41:18.309Z,1.75
2022-09-28T10:43:46.556Z,1.83
2022-09-28T10:46:59.505Z,0.15
2022-09-28T10:53:58.554Z,1.95
2022-09-28T10:57:13.361Z,0.80
2022-09-28T11:00:50.043Z,1.80
2022-09-28T11:03:53.826Z,1.13
2022-09-28T11:07:15.365Z,0.10
2022-09-28T11:19:03.433Z,1.05
2022-09-28T11:22:23.188Z,1.83
2022-09-28T11:30:05.705Z,0.40
2022-09-28T11:33:41.722Z,0.20
2022-09-28T11:37:09.752Z,0.50
2022-09-28T11:40:38.833Z,1.10
2022-09-28T11:43:50.025Z,3.05
2022-09-28T11:47:22.003Z,1.15
2022-09-28T11:51:03.694Z,0.22
2022-09-28T11:57:52.887Z,0.20
2022-09-28T12:04:50.456Z,1.08
2022-09-28T12:08:43.863Z,0.47
2022-09-28T12:12:33.264Z,0.30
2022-09-28T12:16:32.733Z,0.10
2022-09-28T12:30:51.158Z,0.10
2022-09-28T12:37:16.051Z,0.95
2022-09-28T12:40:53.789Z,1.33
2022-09-28T12:44:30.731Z,0.08
2022-09-28T12:48:28.377Z,0.40
2022-09-28T12:51:52.938Z,2.33
2022-09-28T12:55:30.311Z,0.20
2022-09-28T13:06:25.551Z,1.70
2022-09-28T13:10:06.329Z,0.20
2022-09-28T13:17:00.750Z,0.28
2022-09-28T13:20:25.417Z,1.27
2022-09-28T13:23:50.699Z,4.55
2022-09-28T13:27:35.003Z,0.28
2022-09-28T13:30:44.045Z,1.42
2022-09-28T13:34:17.708Z,0.47
2022-09-28T13:41:59.365Z,0.08
2022-09-28T13:45:36.840Z,0.20
2022-09-28T13:49:32.893Z,0.43
2022-09-28T13:52:54.051Z,3.60
2022-09-28T13:56:06.160Z,0.80
2022-09-28T13:59:21.236Z,1.65
2022-09-28T14:02:51.142Z,1.27
2022-09-28T14:06:51.407Z,0.35
2022-09-28T14:10:37.745Z,0.88
2022-09-28T14:14:20.231Z,0.40
2022-09-28T14:16:50.288Z,2.08
2022-09-28T14:19:51.558Z,1.48
2022-09-28T14:22:50.387Z,0.95
2022-09-28T14:25:24.415Z,1.67
2022-09-28T14:28:04.901Z,0.32
2022-09-28T14:30:48.930Z,0.52
2022-09-28T14:33:26.690Z,2.38
2022-09-28T14:35:57.589Z,0.30
2022-09-28T14:38:50.619Z,0.32
2022-09-28T14:41:34.293Z,0.40
2022-09-28T14:44:09.572Z,1.83
2022-09-28T14:46:44.833Z,0.85
2022-09-28T14:49:47.647Z,0.70
2022-09-28T14:52:38.261Z,0.73
2022-09-28T14:55:16.142Z,0.82
2022-09-28T14:57:44.474Z,1.90
2022-09-28T15:01:07.697Z,0.17
2022-09-28T15:04:17.302Z,1.55
2022-09-28T15:07:52.436Z,0.70
2022-09-28T15:14:32.829Z,5.38
2022-09-28T15:17:49.780Z,0.08
2022-09-28T15:21:19.436Z,0.70
2022-09-28T15:29:03.315Z,2.83
2022-09-28T15:32:36.735Z,1.13
2022-09-28T15:36:03.472Z,0.10
2022-09-28T15:39:47.152Z,0.55
2022-09-28T15:43:09.272Z,0.65
2022-09-28T15:46:30.357Z,1.00
2022-09-28T15:49:49.736Z,0.20
2022-09-28T15:52:59.542Z,2.10
2022-09-28T16:04:00.921Z,0.80
2022-09-28T16:07:10.037Z,0.82
2022-09-28T16:10:38.334Z,0.70
2022-09-28T16:14:47.037Z,1.00
2022-09-28T16:18:03.346Z,0.50
2022-09-28T16:21:19.801Z,1.33
2022-09-28T16:27:23.885Z,0.17
2022-09-28T16:30:49.268Z,1.27
2022-09-28T16:34:41.950Z,2.95
2022-09-28T16:38:09.699Z,1.75
2022-09-28T16:41:25.995Z,1.20
2022-09-28T16:44:43.313Z,0.60
2022-09-28T16:47:54.058Z,1.63
2022-09-28T16:54:45.225Z,0.13
2022-09-28T16:58:29.702Z,0.30
2022-09-28T17:01:38.809Z,1.00
2022-09-28T17:05:31.089Z,4.90
2022-09-28T17:12:39.439Z,0.40
2022-09-28T17:16:06.394Z,0.80
2022-09-28T17:22:51.981Z,1.20
2022-09-28T17:26:34.515Z,1.77
2022-09-28T17:30:02.492Z,16.67
2022-09-28T17:33:05.275Z,23.10
2022-09-28T17:36:17.601Z,13.23
2022-09-28T17:39:33.815Z,4.70
2022-09-28T17:43:02.362Z,1.58
2022-09-28T17:46:22.042Z,1.75
2022-09-28T17:50:04.577Z,1.77
2022-09-28T17:53:39.005Z,2.30
2022-09-28T18:00:44.906Z,1.40
2022-09-28T18:07:45.427Z,8.65
2022-09-28T18:14:32.851Z,4.65
2022-09-28T18:21:39.736Z,0.80
2022-09-28T18:25:03.796Z,1.35
2022-09-28T18:29:09.935Z,1.77
2022-09-28T18:33:11.286Z,0.73
2022-09-28T18:36:55.966Z,8.50
2022-09-28T18:43:23.755Z,4.55
2022-09-28T19:01:54.908Z,6.68
2022-09-28T19:09:05.550Z,5.95
2022-09-28T19:15:25.258Z,8.68
2022-09-28T19:18:56.234Z,11.05
2022-09-28T19:22:17.614Z,10.32
2022-09-28T19:25:43.869Z,10.85
2022-09-28T19:32:04.779Z,11.63
2022-09-28T19:35:56.265Z,13.85
2022-09-28T19:42:10.944Z,13.27
2022-09-28T19:45:23.055Z,7.35
2022-09-28T19:48:40.559Z,6.47
2022-09-28T19:52:22.196Z,11.00
2022-09-28T19:55:27.729Z,9.27
2022-09-28T19:58:44.233Z,13.10
2022-09-28T20:02:12.530Z,17.52
2022-09-28T20:05:34.655Z,12.63
2022-09-28T20:09:34.780Z,9.75
2022-09-28T20:12:55.991Z,9.90
2022-09-28T20:19:46.401Z,11.52
2022-09-28T20:23:34.177Z,10.40
2022-09-28T20:31:07.022Z,11.73
2022-09-28T20:41:45.319Z,13.68
2022-09-28T20:44:55.772Z,16.05
2022-09-28T20:48:21.998Z,14.20
2022-09-28T20:51:52.953Z,13.60
2022-09-28T20:55:36.155Z,12.73
2022-09-28T20:58:55.608Z,14.00
2022-09-28T21:02:20.210Z,17.23
2022-09-28T21:05:27.048Z,17.88
2022-09-28T21:08:48.488Z,17.40
2022-09-28T21:16:14.417Z,19.77
2022-09-28T21:19:20.616Z,17.60
2022-09-28T21:22:44.319Z,18.95
2022-09-28T21:26:20.970Z,21.65
2022-09-28T21:29:55.900Z,38.97
2022-09-28T21:33:03.189Z,23.35
2022-09-28T21:36:25.944Z,23.93
2022-09-28T21:38:55.085Z,25.67
2022-09-28T21:41:25.177Z,25.42
2022-09-28T21:43:53.608Z,24.02
2022-09-28T21:46:21.858Z,25.55
2022-09-28T21:48:53.528Z,26.20
2022-09-28T21:51:22.529Z,26.85
2022-09-28T21:53:50.895Z,27.65
2022-09-28T21:57:13.515Z,26.13
2022-09-28T22:01:05.665Z,25.40
2022-09-28T22:04:39.566Z,25.47
2022-09-28T22:07:50.794Z,27.27
2022-09-28T22:11:07.833Z,27.67
2022-09-28T22:13:58.865Z,30.53
2022-09-28T22:17:21.229Z,31.03
2022-09-28T22:20:34.499Z,27.92
2022-09-28T22:23:49.234Z,28.77
2022-09-28T22:27:05.737Z,29.58
2022-09-28T22:30:39.035Z,34.27
2022-09-28T22:34:25.711Z,29.03
2022-09-28T22:37:53.418Z,29.30
2022-09-28T22:44:27.801Z,31.20
2022-09-28T22:55:22.772Z,27.33
2022-09-28T22:58:50.939Z,32.57
2022-09-28T23:02:06.427Z,32.63
2022-09-28T23:08:54.133Z,34.27
2022-09-28T23:12:07.462Z,32.17
2022-09-28T23:24:07.744Z,34.67
2022-09-28T23:26:17.246Z,37.60
2022-09-28T23:32:51.137Z,40.53
2022-09-28T23:36:03.538Z,38.92
2022-09-28T23:39:06.872Z,43.17
2022-09-28T23:42:18.110Z,39.80
2022-09-28T23:45:32.487Z,41.70
2022-09-28T23:49:22.189Z,44.07
2022-09-28T23:56:15.504Z,44.60
